Time;durP1;ratioP1;P1;durP2;ratioP2;P2;SDS_P1;SDS_P2;PMS_P1;PMS_P2;Temp;Humidity;BMP_temperature;BMP_pressure;BME280_temperature;BME280_humidity;BME280_pressure;Samples;Min_cycle;Max_cycle;Signal;HPM_P1;HPM_P2
2022/11/02 00:01:48;;;;;;;0.00;0.00;;;;;;;11.16;73.43;100570.44;5032454;28;20526;-84
2022/11/02 00:04:13;;;;;;;0.80;0.53;;;;;;;11.11;73.73;100558.81;5032431;28;20226;-85
2022/11/02 00:06:40;;;;;;;0.00;0.00;;;;;;;11.10;73.63;100558.00;5032100;28;20635;-84
2022/11/02 00:09:05;;;;;;;0.67;0.23;;;;;;;11.13;73.86;100554.66;5014268;28;20601;-85
2022/11/02 00:11:30;;;;;;;0.97;0.57;;;;;;;11.19;73.90;100556.16;5014303;28;20203;-85
2022/11/02 00:13:56;;;;;;;2.43;2.23;;;;;;;11.04;73.79;100545.59;5031977;28;20175;-84
2022/11/02 00:16:22;;;;;;;0.00;0.00;;;;;;;10.99;74.17;100557.47;5031954;28;20168;-84
2022/11/02 00:18:50;;;;;;;0.00;0.00;;;;;;;11.05;74.32;100557.34;5014298;28;20517;-84
2022/11/02 00:21:17;;;;;;;0.20;0.17;;;;;;;10.93;74.50;100549.69;5031803;28;20628;-82
2022/11/02 00:23:43;;;;;;;0.40;0.40;;;;;;;10.98;74.61;100544.91;5031766;28;20267;-83
2022/11/02 00:26:09;;;;;;;0.00;0.00;;;;;;;10.97;74.81;100540.56;5031860;28;20251;-84
2022/11/02 00:28:34;;;;;;;0.00;0.00;;;;;;;11.03;74.92;100544.78;5031653;28;20689;-84
2022/11/02 00:31:00;;;;;;;1.30;1.17;;;;;;;11.03;74.72;100539.31;5031708;28;20180;-84
2022/11/02 00:33:25;;;;;;;0.00;0.00;;;;;;;11.15;74.47;100543.41;5031590;28;20239;-81
2022/11/02 00:35:53;;;;;;;0.20;0.10;;;;;;;11.18;74.37;100540.06;5031449;28;20176;-81
2022/11/02 00:38:18;;;;;;;0.13;0.13;;;;;;;11.21;74.33;100537.50;5031621;28;20179;-83
2022/11/02 00:40:43;;;;;;;12.37;1.00;;;;;;;11.12;74.61;100528.41;5031683;28;20172;-84
2022/11/02 00:43:09;;;;;;;16.43;1.53;;;;;;;11.20;74.50;100524.94;5031407;28;20655;-84
2022/11/02 00:45:34;;;;;;;5.70;1.17;;;;;;;11.17;74.39;100520.09;5031471;28;20188;-83
2022/11/02 00:48:00;;;;;;;7.33;1.13;;;;;;;11.24;74.69;100517.72;5031255;28;20179;-84
2022/11/02 00:50:25;;;;;;;0.00;0.00;;;;;;;11.27;74.25;100519.00;5031478;28;20673;-83
2022/11/02 00:52:51;;;;;;;4.17;0.13;;;;;;;11.32;73.93;100516.16;5013470;28;20538;-83
2022/11/02 00:55:16;;;;;;;3.13;0.97;;;;;;;11.29;73.69;100506.66;5031618;28;20175;-82
2022/11/02 00:57:43;;;;;;;0.93;0.60;;;;;;;11.32;73.71;100518.91;5031432;28;20179;-83
2022/11/02 01:00:09;;;;;;;1.57;0.07;;;;;;;11.27;74.11;100502.59;5031690;28;20572;-82
2022/11/02 01:02:36;;;;;;;0.07;0.07;;;;;;;11.29;73.75;100512.13;5013332;28;20233;-84
2022/11/02 01:05:02;;;;;;;0.93;0.30;;;;;;;11.26;74.32;100501.78;5031062;28;20179;-83
2022/11/02 01:07:28;;;;;;;3.50;1.43;;;;;;;11.25;74.47;100500.19;5031120;28;20172;-83
2022/11/02 01:09:53;;;;;;;0.00;0.00;;;;;;;11.27;74.49;100489.72;5031108;28;20176;-82
2022/11/02 01:12:18;;;;;;;1.80;1.00;;;;;;;11.27;74.78;100513.53;5031147;28;20207;-82
2022/11/02 01:14:47;;;;;;;1.73;0.17;;;;;;;11.30;74.13;100504.72;5025646;28;20238;-84
2022/11/02 01:17:13;;;;;;;5.90;0.77;;;;;;;11.30;74.01;100502.81;5030240;28;20704;-80
2022/11/02 01:19:39;;;;;;;2.00;0.37;;;;;;;11.31;74.58;100501.69;5013103;28;20238;-82
2022/11/02 01:22:05;;;;;;;0.10;0.10;;;;;;;11.30;74.14;100504.72;5030668;28;20172;-82
2022/11/02 01:24:30;;;;;;;0.00;0.00;;;;;;;11.27;74.69;100508.88;5030319;28;20175;-82
2022/11/02 01:26:55;;;;;;;0.97;0.77;;;;;;;11.25;74.50;100513.06;5030685;28;20179;-84
2022/11/02 01:29:21;;;;;;;0.10;0.10;;;;;;;11.21;74.46;100507.41;5030477;28;20209;-83
2022/11/02 01:31:47;;;;;;;0.20;0.20;;;;;;;11.19;74.67;100509.66;5030370;28;20196;-83
2022/11/02 01:34:13;;;;;;;0.23;0.20;;;;;;;11.13;74.73;100505.44;5030155;28;20187;-83
2022/11/02 01:36:39;;;;;;;0.00;0.00;;;;;;;11.10;75.55;100500.59;5030531;28;20172;-82
2022/11/02 01:39:04;;;;;;;0.00;0.00;;;;;;;11.10;75.65;100506.06;5030666;28;20183;-83
2022/11/02 01:41:29;;;;;;;1.20;1.20;;;;;;;11.14;75.71;100500.75;5030819;28;20187;-83
2022/11/02 01:44:35;;;;;;;0.00;0.00;;;;;;;11.17;75.20;100498.22;5032680;28;20241;-83
2022/11/02 01:47:07;;;;;;;2.13;2.00;;;;;;;11.22;75.05;100498.09;5034700;28;20293;-82
2022/11/02 01:49:37;;;;;;;1.17;0.63;;;;;;;11.25;75.14;100494.72;5034283;28;20218;-82
2022/11/02 01:52:12;;;;;;;0.87;0.13;;;;;;;11.23;75.40;100480.56;5034409;28;20211;-82
2022/11/02 01:55:07;;;;;;;6.67;0.87;;;;;;;11.25;75.12;100480.22;5034384;28;20175;-82
2022/11/02 01:57:34;;;;;;;0.57;0.40;;;;;;;11.26;75.79;100470.91;5023432;28;20515;-81
2022/11/02 02:00:09;;;;;;;0.87;0.37;;;;;;;11.27;75.36;100472.50;5035019;28;20275;-83
2022/11/02 02:02:37;;;;;;;0.20;0.20;;;;;;;11.27;75.13;100467.84;5034238;28;20175;-84
2022/11/02 02:05:08;;;;;;;0.00;0.00;;;;;;;11.24;75.35;100468.50;5033994;28;20498;-86
2022/11/02 02:07:38;;;;;;;0.13;0.13;;;;;;;11.24;75.49;100462.22;5034298;28;20513;-83
2022/11/02 02:10:05;;;;;;;0.50;0.43;;;;;;;11.29;75.32;100462.91;5034499;28;20176;-83
2022/11/02 02:12:33;;;;;;;0.00;0.00;;;;;;;11.33;75.25;100463.88;5034150;28;20211;-80
2022/11/02 02:14:58;;;;;;;0.00;0.00;;;;;;;11.28;74.95;100465.94;5034485;28;20172;-85
2022/11/02 02:17:38;;;;;;;0.00;0.00;;;;;;;11.26;75.72;100468.97;5034130;28;20171;-85
2022/11/02 02:20:58;;;;;;;3.07;0.57;;;;;;;11.36;75.38;100483.50;5034196;28;20174;-86
2022/11/02 02:24:02;;;;;;;0.10;0.10;;;;;;;11.38;75.53;100475.78;4953794;29;20258;-84
2022/11/02 02:26:45;;;;;;;0.00;0.00;;;;;;;11.35;75.73;100476.44;5010889;28;20200;-84
2022/11/02 02:29:45;;;;;;;5.20;0.50;;;;;;;11.38;75.30;100467.59;5035476;28;20172;-84
2022/11/02 02:32:27;;;;;;;0.00;0.00;;;;;;;11.35;75.68;100460.81;5033856;28;20219;-84
2022/11/02 02:34:58;;;;;;;0.00;0.00;;;;;;;11.32;76.22;100459.53;5033763;28;20183;-84
2022/11/02 02:37:34;;;;;;;1.13;1.13;;;;;;;11.40;75.40;100454.38;5033898;28;20172;-84
2022/11/02 02:40:25;;;;;;;0.00;0.00;;;;;;;11.43;75.41;100457.31;5033809;28;20241;-86
2022/11/02 02:43:17;;;;;;;0.00;0.00;;;;;;;11.45;75.99;100465.22;4996705;28;20225;-83
2022/11/02 02:46:01;;;;;;;0.00;0.00;;;;;;;11.41;75.48;100453.25;5033516;28;20655;-85
2022/11/02 02:48:28;;;;;;;0.00;0.00;;;;;;;11.40;75.30;100447.00;5033527;28;20210;-85
2022/11/02 02:51:00;;;;;;;0.00;0.00;;;;;;;11.38;75.72;100441.03;5033336;28;20295;-84
2022/11/02 02:53:37;;;;;;;0.30;0.30;;;;;;;11.39;76.06;100430.91;5033464;28;20168;-84
2022/11/02 02:56:05;;;;;;;0.80;0.53;;;;;;;11.36;75.77;100431.53;5015709;28;20556;-85
2022/11/02 02:58:37;;;;;;;0.70;0.13;;;;;;;11.47;75.25;100435.59;5033370;28;20199;-84
2022/11/02 03:01:04;;;;;;;0.00;0.00;;;;;;;11.43;75.46;100440.06;5033590;28;20628;-84
2022/11/02 03:03:32;;;;;;;0.00;0.00;;;;;;;11.49;75.36;100439.63;5048568;28;20683;-83
2022/11/02 03:06:04;;;;;;;0.30;0.30;;;;;;;11.50;75.58;100434.97;5033644;28;20578;-84
2022/11/02 03:08:31;;;;;;;0.10;0.10;;;;;;;11.53;75.67;100429.66;5033243;28;20168;-85
2022/11/02 03:11:16;;;;;;;0.00;0.00;;;;;;;11.60;75.71;100434.69;5033213;28;20267;-86
2022/11/02 03:14:02;;;;;;;0.40;0.40;;;;;;;11.57;75.67;100438.84;5033007;28;20251;-81
2022/11/02 03:16:53;;;;;;;0.73;0.73;;;;;;;11.51;76.00;100431.91;5032939;28;20531;-85
2022/11/02 03:19:29;;;;;;;0.00;0.00;;;;;;;11.49;76.21;100436.88;5032922;28;20184;-84
2022/11/02 03:22:03;;;;;;;0.10;0.10;;;;;;;11.60;75.95;100437.41;5032807;28;20275;-83
2022/11/02 03:24:54;;;;;;;0.00;0.00;;;;;;;11.54;75.77;100425.78;5032720;28;20188;-85
2022/11/02 03:27:33;;;;;;;0.00;0.00;;;;;;;11.62;76.40;100438.69;5014919;28;20184;-84
2022/11/02 03:30:13;;;;;;;0.30;0.20;;;;;;;11.68;75.55;100433.06;5032993;28;20184;-84
2022/11/02 03:32:57;;;;;;;0.00;0.00;;;;;;;11.74;75.39;100431.81;5032115;28;20210;-84
2022/11/02 03:35:46;;;;;;;0.00;0.00;;;;;;;11.70;75.61;100426.13;5032381;28;20246;-82
2022/11/02 03:38:21;;;;;;;1.10;0.40;;;;;;;11.76;75.44;100433.09;5032102;28;20176;-83
2022/11/02 03:40:49;;;;;;;0.00;0.00;;;;;;;11.77;75.60;100436.63;5032181;28;20184;-85
2022/11/02 03:43:17;;;;;;;0.00;0.00;;;;;;;11.79;75.68;100435.22;5032022;28;20583;-84
2022/11/02 03:45:46;;;;;;;0.20;0.20;;;;;;;11.67;75.97;100426.78;5031977;28;20277;-83
2022/11/02 03:48:13;;;;;;;0.00;0.00;;;;;;;11.71;75.70;100430.50;5032073;28;20183;-84
2022/11/02 03:50:45;;;;;;;0.00;0.00;;;;;;;11.68;76.14;100430.34;5032207;28;20187;-85
2022/11/02 03:53:25;;;;;;;0.37;0.37;;;;;;;11.68;76.19;100433.06;5031701;28;20494;-84
2022/11/02 03:55:57;;;;;;;1.23;0.73;;;;;;;11.68;76.05;100442.09;5031994;28;20180;-83
2022/11/02 03:58:22;;;;;;;3.20;0.67;;;;;;;11.67;76.16;100435.00;5031981;28;20177;-83
2022/11/02 04:00:54;;;;;;;3.53;0.80;;;;;;;11.66;76.59;100438.06;5031934;28;20180;-84
2022/11/02 04:03:22;;;;;;;1.60;0.10;;;;;;;11.54;76.62;100428.53;5031631;28;20191;-85
2022/11/02 04:05:47;;;;;;;0.10;0.10;;;;;;;11.60;76.93;100435.47;5031133;28;20653;-84
2022/11/02 04:08:21;;;;;;;0.00;0.00;;;;;;;11.56;76.34;100437.22;5031647;28;20266;-85
2022/11/02 04:16:16;;;;;;;1.60;0.30;;;;;;;11.58;77.03;100431.47;5031708;28;20223;-83
2022/11/02 04:21:26;;;;;;;0.30;0.27;;;;;;;11.61;77.31;100437.09;5031769;28;20210;-85
2022/11/02 04:26:35;;;;;;;19.07;0.97;;;;;;;11.66;77.21;100427.09;5031642;28;20183;-85
2022/11/02 04:29:01;;;;;;;11.70;0.20;;;;;;;11.75;76.79;100436.16;5013670;28;20199;-84
2022/11/02 04:31:26;;;;;;;8.00;1.50;;;;;;;11.76;76.81;100446.78;5031117;28;20200;-82
2022/11/02 04:33:52;;;;;;;0.20;0.20;;;;;;;11.74;76.70;100431.81;5031073;28;20180;-83
2022/11/02 04:36:17;;;;;;;0.23;0.17;;;;;;;11.71;76.77;100435.97;5031548;28;20178;-84
2022/11/02 04:38:43;;;;;;;0.67;0.17;;;;;;;11.69;76.89;100442.88;5031121;28;20187;-83
2022/11/02 04:43:58;;;;;;;0.10;0.10;;;;;;;11.67;77.06;100442.41;5030920;28;20249;-84
2022/11/02 04:46:25;;;;;;;0.60;0.20;;;;;;;11.75;76.68;100436.97;5031260;28;20561;-83
2022/11/02 04:48:50;;;;;;;0.60;0.60;;;;;;;11.71;76.80;100438.69;5030902;28;20168;-84
2022/11/02 04:51:16;;;;;;;0.07;0.07;;;;;;;11.74;76.67;100445.50;5031013;28;20230;-84
2022/11/02 04:53:41;;;;;;;0.10;0.10;;;;;;;11.76;77.21;100440.50;5030638;28;20770;-81
2022/11/02 04:56:07;;;;;;;0.00;0.00;;;;;;;11.73;76.78;100444.69;5030858;28;20250;-85
2022/11/02 04:58:33;;;;;;;1.00;0.67;;;;;;;11.75;76.55;100436.97;5031162;28;20263;-83
2022/11/02 05:01:03;;;;;;;0.47;0.40;;;;;;;11.76;76.36;100446.78;5030830;28;20588;-83
2022/11/02 05:03:29;;;;;;;0.10;0.10;;;;;;;11.76;76.87;100460.47;5030471;28;20540;-85
2022/11/02 05:05:54;;;;;;;0.03;0.03;;;;;;;11.76;77.37;100460.47;5030718;28;20179;-83
2022/11/02 05:08:19;;;;;;;0.00;0.00;;;;;;;11.77;76.71;100456.59;5030611;28;20229;-87
2022/11/02 05:10:45;;;;;;;1.50;0.50;;;;;;;11.75;76.76;100463.53;5030663;28;20246;-85
2022/11/02 05:13:10;;;;;;;2.77;0.70;;;;;;;11.72;77.24;100459.50;5030310;28;20211;-84
2022/11/02 05:15:38;;;;;;;0.43;0.30;;;;;;;11.69;77.22;100453.84;5030513;28;20659;-84
2022/11/02 05:18:03;;;;;;;1.97;0.80;;;;;;;11.71;77.01;100446.09;5029668;28;20172;-84
2022/11/02 05:20:28;;;;;;;1.20;0.57;;;;;;;11.72;76.78;100448.56;5030603;28;20199;-84
2022/11/02 05:22:53;;;;;;;1.37;1.07;;;;;;;11.68;77.18;100453.03;5012712;28;20175;-85
2022/11/02 05:25:19;;;;;;;0.00;0.00;;;;;;;11.62;77.07;100460.59;5030440;28;20187;-86
2022/11/02 05:27:44;;;;;;;0.43;0.43;;;;;;;11.58;77.16;100458.81;5030273;28;20172;-84
2022/11/02 05:30:10;;;;;;;4.23;0.93;;;;;;;11.56;77.42;100450.91;5030371;28;20264;-83
2022/11/02 05:32:35;;;;;;;0.60;0.60;;;;;;;11.54;78.27;100455.09;5030062;28;20207;-82
2022/11/02 05:35:00;;;;;;;0.00;0.00;;;;;;;11.53;77.92;100448.81;5030387;28;20176;-84
2022/11/02 05:37:26;;;;;;;25.77;1.43;;;;;;;11.56;77.82;100458.31;5030344;28;20266;-84
2022/11/02 05:39:51;;;;;;;1.80;0.73;;;;;;;11.48;77.97;100461.84;5030188;28;20716;-83
2022/11/02 05:42:16;;;;;;;6.17;1.23;;;;;;;11.50;78.35;100463.13;5030283;28;20176;-85
2022/11/02 05:44:42;;;;;;;1.50;0.73;;;;;;;11.46;78.22;100459.41;5029891;28;20318;-85
2022/11/02 05:47:07;;;;;;;8.57;0.30;;;;;;;11.48;78.25;100462.63;5030154;28;20176;-85
2022/11/02 05:49:32;;;;;;;0.63;0.63;;;;;;;11.48;78.61;100462.63;5030217;28;20191;-83
2022/11/02 05:51:58;;;;;;;0.00;0.00;;;;;;;11.48;78.49;100472.78;5030175;28;20196;-84
2022/11/02 05:54:23;;;;;;;1.97;1.20;;;;;;;11.54;78.46;100471.50;5012116;28;20222;-82
2022/11/02 05:56:48;;;;;;;0.37;0.23;;;;;;;11.54;78.12;100474.22;5030477;28;20168;-84
2022/11/02 05:59:14;;;;;;;0.00;0.00;;;;;;;11.54;77.79;100472.31;5030034;28;20646;-84
2022/11/02 06:01:39;;;;;;;1.33;0.80;;;;;;;11.53;78.82;100472.63;5030010;28;20230;-83
2022/11/02 06:04:05;;;;;;;1.53;1.40;;;;;;;11.53;77.82;100473.44;5028484;28;20329;-83
2022/11/02 06:06:30;;;;;;;1.03;0.83;;;;;;;11.59;77.95;100466.72;5030042;28;20532;-84
2022/11/02 06:08:55;;;;;;;0.00;0.00;;;;;;;11.62;77.99;100484.41;5029840;28;20261;-84
2022/11/02 06:11:21;;;;;;;1.43;0.27;;;;;;;11.65;77.29;100469.28;5029880;28;20195;-85
2022/11/02 06:13:50;;;;;;;2.27;1.27;;;;;;;11.67;77.21;100483.44;5029876;28;20179;-83
2022/11/02 06:16:16;;;;;;;1.27;0.97;;;;;;;11.67;77.30;100487.00;5029930;28;20172;-84
2022/11/02 06:18:42;;;;;;;0.93;0.70;;;;;;;11.67;77.56;100478.78;5029947;28;20168;-83
2022/11/02 06:21:08;;;;;;;2.67;0.43;;;;;;;11.60;76.97;100492.94;5029849;28;20175;-85
2022/11/02 06:23:34;;;;;;;1.80;0.73;;;;;;;11.61;77.68;100497.28;5011760;28;20180;-83
2022/11/02 06:26:01;;;;;;;1.60;0.43;;;;;;;11.59;77.67;100510.50;5030004;28;20229;-87
2022/11/02 06:28:28;;;;;;;4.83;1.23;;;;;;;11.55;77.65;100508.69;5029821;28;20198;-84
2022/11/02 06:30:53;;;;;;;2.03;0.70;;;;;;;11.55;78.22;100503.22;5033270;28;20262;-86
2022/11/02 06:33:18;;;;;;;1.03;1.03;;;;;;;11.54;77.62;100502.41;5033247;28;20302;-86
2022/11/02 06:35:49;;;;;;;3.63;1.07;;;;;;;11.54;77.55;100507.06;5033357;28;20176;-84
2022/11/02 06:38:15;;;;;;;1.27;0.77;;;;;;;11.57;77.50;100518.22;5033269;28;20190;-81
2022/11/02 06:40:40;;;;;;;8.93;0.97;;;;;;;11.52;77.71;100525.75;5033392;28;20176;-85
2022/11/02 06:43:06;;;;;;;2.33;0.87;;;;;;;11.55;77.54;100525.91;5033109;28;20172;-84
2022/11/02 06:45:32;;;;;;;7.27;1.37;;;;;;;11.57;77.67;100517.38;5033111;28;20244;-85
2022/11/02 06:47:57;;;;;;;0.57;0.53;;;;;;;11.56;77.46;100533.00;5033175;28;20187;-85
2022/11/02 06:50:23;;;;;;;0.00;0.00;;;;;;;11.56;77.72;100527.50;5033198;28;20180;-82
2022/11/02 06:52:49;;;;;;;2.70;1.57;;;;;;;11.55;77.98;100533.31;5032914;28;20329;-86
2022/11/02 06:55:15;;;;;;;6.97;1.20;;;;;;;11.55;78.31;100544.25;5033272;28;20188;-82
2022/11/02 06:57:42;;;;;;;0.83;0.20;;;;;;;11.58;77.98;100533.50;5032963;28;20180;-81
2022/11/02 07:00:16;;;;;;;3.23;0.80;;;;;;;11.61;77.64;100543.81;5033008;28;20534;-82
2022/11/02 07:02:41;;;;;;;4.43;1.07;;;;;;;11.61;77.59;100548.47;5033051;28;20523;-86
2022/11/02 07:05:08;;;;;;;2.50;0.90;;;;;;;11.67;77.77;100547.19;5032918;28;20182;-79
2022/11/02 07:07:33;;;;;;;3.33;0.87;;;;;;;11.68;77.49;100554.28;5032926;28;20177;-85
2022/11/02 07:09:58;;;;;;;3.37;1.57;;;;;;;11.73;77.24;100554.16;5032956;28;20183;-85
2022/11/02 07:12:24;;;;;;;5.13;0.93;;;;;;;11.77;77.59;100555.16;5032664;28;20290;-85
2022/11/02 07:14:49;;;;;;;3.50;0.73;;;;;;;11.85;77.42;100565.34;5032459;28;20168;-82
2022/11/02 07:17:14;;;;;;;1.50;1.00;;;;;;;11.85;77.61;100564.53;5027752;28;20184;-87
2022/11/02 07:19:40;;;;;;;4.93;0.60;;;;;;;11.84;77.65;100563.72;5032280;28;20654;-85
2022/11/02 07:22:05;;;;;;;5.90;0.73;;;;;;;11.86;77.06;100563.41;5032642;28;20179;-87
2022/11/02 07:24:30;;;;;;;3.60;1.03;;;;;;;11.90;76.62;100565.22;5032556;28;20601;-85
2022/11/02 07:26:56;;;;;;;6.33;1.30;;;;;;;11.91;76.39;100564.09;5032483;28;20176;-85
2022/11/02 07:29:21;;;;;;;0.63;0.63;;;;;;;11.89;76.55;100568.25;5032549;28;20211;-86
2022/11/02 07:31:46;;;;;;;2.20;0.80;;;;;;;11.89;76.97;100574.53;5032385;28;20257;-83
2022/11/02 07:34:12;;;;;;;2.17;0.80;;;;;;;11.91;76.68;100583.25;5031974;28;20180;-80
2022/11/02 07:36:38;;;;;;;0.90;0.63;;;;;;;11.91;76.69;100575.03;5032408;28;20579;-81
2022/11/02 07:39:04;;;;;;;0.87;0.43;;;;;;;11.89;77.09;100565.53;5032231;28;20187;-78
2022/11/02 07:41:30;;;;;;;3.73;1.23;;;;;;;11.90;76.99;100575.34;5028358;28;20284;-78
2022/11/02 07:43:55;;;;;;;1.37;0.50;;;;;;;11.96;76.75;100587.75;5031226;28;20580;-78
2022/11/02 07:46:20;;;;;;;4.43;1.37;;;;;;;11.99;76.59;100572.63;5031737;28;20658;-82
2022/11/02 07:48:46;;;;;;;4.57;1.10;;;;;;;11.98;76.25;100576.50;5031718;28;20172;-79
2022/11/02 07:51:11;;;;;;;1.60;0.10;;;;;;;12.01;75.84;100573.13;5029873;28;20242;-83
2022/11/02 07:53:37;;;;;;;0.93;0.40;;;;;;;12.00;76.48;100583.25;5031227;28;20188;-82
2022/11/02 07:56:03;;;;;;;6.13;0.93;;;;;;;12.01;76.64;100578.63;5031764;28;20180;-85
2022/11/02 07:58:28;;;;;;;2.30;0.90;;;;;;;12.01;77.26;100584.91;5031972;28;20257;-85
2022/11/02 08:00:57;;;;;;;0.10;0.10;;;;;;;11.99;76.77;100584.38;5031881;28;20597;-83
2022/11/02 08:03:22;;;;;;;1.70;1.00;;;;;;;11.99;76.17;100580.84;5031470;28;20401;-84
2022/11/02 08:05:48;;;;;;;3.23;0.97;;;;;;;11.97;76.42;100591.31;5031843;28;20187;-83
2022/11/02 08:08:15;;;;;;;0.10;0.00;;;;;;;12.02;76.42;100600.19;5031317;28;20282;-82
2022/11/02 08:10:41;;;;;;;11.07;1.10;;;;;;;12.05;75.86;100593.28;5031687;28;20234;-80
2022/11/02 08:13:09;;;;;;;2.10;0.87;;;;;;;12.08;76.78;100596.19;5031145;28;20721;-81
2022/11/02 08:15:35;;;;;;;1.50;0.70;;;;;;;12.15;76.23;100610.25;5031544;28;20176;-79
2022/11/02 08:18:05;;;;;;;1.07;0.83;;;;;;;12.22;75.76;100590.59;5031750;28;20654;-79
2022/11/02 08:20:31;;;;;;;4.20;0.73;;;;;;;12.26;75.74;100597.03;5031596;28;20184;-81
2022/11/02 08:22:56;;;;;;;1.20;1.20;;;;;;;12.27;75.65;100595.91;5031335;28;20194;-80
2022/11/02 08:25:22;;;;;;;1.23;0.67;;;;;;;12.24;75.59;100596.53;5031804;28;20202;-79
2022/11/02 08:27:47;;;;;;;3.30;1.60;;;;;;;12.24;75.79;100596.53;5031658;28;20286;-80
2022/11/02 08:30:13;;;;;;;0.73;0.70;;;;;;;12.23;76.13;100605.09;5031563;28;20521;-81
2022/11/02 08:32:38;;;;;;;5.20;0.60;;;;;;;12.23;75.84;100611.38;5031207;28;20212;-79
2022/11/02 08:35:04;;;;;;;7.37;1.83;;;;;;;12.23;76.43;100599.59;5031384;28;20195;-78
2022/11/02 08:37:29;;;;;;;4.13;1.27;;;;;;;12.26;75.97;100613.47;5031209;28;20541;-79
2022/11/02 08:39:54;;;;;;;7.20;1.10;;;;;;;12.26;76.49;100615.41;5031166;28;20179;-81
2022/11/02 08:42:20;;;;;;;3.23;0.70;;;;;;;12.24;76.08;100623.94;5031140;28;20183;-80
2022/11/02 08:44:45;;;;;;;8.30;1.77;;;;;;;12.26;76.10;100624.44;5030744;28;20634;-80
2022/11/02 08:47:10;;;;;;;2.73;0.80;;;;;;;12.26;76.13;100615.41;5031105;28;20180;-79
2022/11/02 08:49:36;;;;;;;3.17;1.27;;;;;;;12.26;75.90;100629.91;5030940;28;20176;-79
2022/11/02 08:52:01;;;;;;;2.57;0.70;;;;;;;12.28;76.15;100638.59;5030816;28;20275;-77
2022/11/02 08:54:26;;;;;;;14.03;1.67;;;;;;;12.34;76.38;100640.09;5031134;28;20202;-77
2022/11/02 08:56:51;;;;;;;0.33;0.33;;;;;;;12.39;75.41;100641.88;5031770;28;20180;-76
2022/11/02 08:59:17;;;;;;;8.23;0.93;;;;;;;12.42;75.79;100643.97;5030896;28;20179;-75
2022/11/02 09:01:42;;;;;;;2.87;0.87;;;;;;;12.41;75.27;100640.41;5030872;28;20180;-75
2022/11/02 09:04:07;;;;;;;0.57;0.53;;;;;;;12.42;75.63;100653.00;5030809;28;20176;-75
2022/11/02 09:06:33;;;;;;;0.40;0.40;;;;;;;12.44;75.22;100648.03;5030743;28;20173;-75
2022/11/02 09:08:58;;;;;;;0.40;0.33;;;;;;;12.50;75.16;100657.69;5026990;28;20881;-74
2022/11/02 09:11:24;;;;;;;2.27;0.90;;;;;;;12.55;75.01;100666.88;5026310;28;20187;-75
2022/11/02 09:13:49;;;;;;;3.77;1.50;;;;;;;12.60;75.10;100664.81;5030996;28;20179;-76
2022/11/02 09:16:14;;;;;;;0.73;0.40;;;;;;;12.64;74.52;100665.78;5030198;28;20257;-76
2022/11/02 09:18:40;;;;;;;0.37;0.37;;;;;;;12.70;74.33;100678.22;5030300;28;20179;-77
2022/11/02 09:21:05;;;;;;;0.50;0.27;;;;;;;12.68;73.89;100661.28;5029001;28;20642;-77
2022/11/02 09:23:31;;;;;;;7.60;1.20;;;;;;;12.68;73.45;100663.22;5030298;28;20184;-80
2022/11/02 09:25:59;;;;;;;1.20;0.70;;;;;;;12.64;73.52;100667.72;5030827;28;20629;-75
2022/11/02 09:28:25;;;;;;;1.23;0.70;;;;;;;12.66;73.12;100673.69;5030605;28;20183;-77
2022/11/02 09:30:51;;;;;;;0.80;0.47;;;;;;;12.71;73.37;100676.28;5030373;28;20168;-78
2022/11/02 09:33:16;;;;;;;8.37;1.20;;;;;;;12.81;72.83;100686.94;5029994;28;20708;-79
2022/11/02 09:35:47;;;;;;;1.77;1.33;;;;;;;12.86;72.93;100686.78;5030303;28;20548;-80
2022/11/02 09:38:13;;;;;;;0.30;0.30;;;;;;;12.92;72.80;100682.78;5030186;28;20176;-77
2022/11/02 09:40:43;;;;;;;6.50;1.50;;;;;;;12.94;71.55;100683.25;5030005;28;20604;-77
2022/11/02 09:43:22;;;;;;;2.47;0.97;;;;;;;12.94;69.57;100691.47;5029940;28;20201;-77
2022/11/02 09:45:59;;;;;;;9.40;0.87;;;;;;;12.98;69.34;100694.38;5030184;28;20253;-75
2022/11/02 09:48:33;;;;;;;6.23;1.50;;;;;;;13.05;67.75;100694.72;5030211;28;20176;-76
2022/11/02 09:51:01;;;;;;;1.00;0.67;;;;;;;13.13;66.66;100684.88;5030271;28;20178;-75
2022/11/02 09:53:37;;;;;;;2.67;0.90;;;;;;;13.13;66.06;100704.88;5029967;28;20567;-78
2022/11/02 09:56:04;;;;;;;1.63;0.73;;;;;;;13.16;66.06;100719.88;5029228;28;20641;-75
2022/11/02 09:58:35;;;;;;;5.23;1.97;;;;;;;13.17;65.84;100699.56;5030107;28;20685;-76
2022/11/02 10:01:25;;;;;;;1.33;0.83;;;;;;;13.29;65.90;100689.56;5030391;28;20172;-80
2022/11/02 10:04:12;;;;;;;8.33;2.03;;;;;;;13.35;66.35;100714.94;5029985;28;20241;-77
2022/11/02 10:06:43;;;;;;;1.70;0.57;;;;;;;13.25;65.43;100726.22;5033869;28;20179;-77
2022/11/02 10:09:39;;;;;;;1.23;0.57;;;;;;;13.24;66.08;100732.84;5031851;28;20171;-76
2022/11/02 10:12:49;;;;;;;2.70;1.53;;;;;;;13.14;66.22;100727.63;5033450;28;20673;-78
2022/11/02 10:15:51;;;;;;;1.73;0.87;;;;;;;13.05;64.89;100731.19;5000829;28;20198;-78
2022/11/02 10:18:22;;;;;;;4.67;1.13;;;;;;;12.97;65.02;100758.59;5033829;28;20372;-77
2022/11/02 10:20:53;;;;;;;2.80;0.67;;;;;;;12.95;64.65;100744.41;5033659;28;20313;-78
2022/11/02 10:23:29;;;;;;;2.30;0.50;;;;;;;13.02;63.08;100742.81;5033240;28;20214;-79
2022/11/02 10:25:54;;;;;;;8.53;1.10;;;;;;;13.15;63.39;100748.44;5033650;28;20626;-78
2022/11/02 10:28:28;;;;;;;1.80;0.83;;;;;;;13.28;63.55;100755.75;5033634;28;20270;-79
2022/11/02 10:30:54;;;;;;;2.43;1.00;;;;;;;13.24;63.01;100743.81;5033706;28;20203;-78
2022/11/02 10:33:25;;;;;;;5.73;1.00;;;;;;;13.13;63.47;100743.28;5033172;28;20204;-78
2022/11/02 10:36:09;;;;;;;0.50;0.50;;;;;;;13.20;63.62;100745.59;5033575;28;20177;-78
2022/11/02 10:39:01;;;;;;;0.90;0.70;;;;;;;13.29;63.84;100749.94;5033514;28;20175;-78
2022/11/02 10:41:47;;;;;;;0.83;0.70;;;;;;;13.29;63.16;100744.47;5031847;28;20186;-78
2022/11/02 10:44:22;;;;;;;1.83;0.87;;;;;;;13.36;62.40;100758.53;5030517;28;20637;-79
2022/11/02 10:46:53;;;;;;;2.37;1.20;;;;;;;13.36;62.04;100754.97;5033082;28;20174;-76
2022/11/02 10:49:48;;;;;;;1.47;0.80;;;;;;;13.47;62.89;100758.22;5033128;28;20237;-78
2022/11/02 10:52:15;;;;;;;2.03;1.17;;;;;;;13.53;62.47;100754.97;5033043;28;20241;-78
2022/11/02 10:54:40;;;;;;;9.37;1.50;;;;;;;13.49;62.56;100756.75;5032974;28;20188;-78
2022/11/02 10:57:17;;;;;;;8.37;1.77;;;;;;;13.40;62.73;100770.47;5033137;28;20448;-78
2022/11/02 10:59:43;;;;;;;8.70;1.20;;;;;;;13.27;62.01;100757.69;5033066;28;20183;-77
2022/11/02 11:02:12;;;;;;;2.07;0.90;;;;;;;13.28;62.33;100778.53;5033025;28;20175;-78
2022/11/02 11:04:38;;;;;;;10.97;0.97;;;;;;;13.18;62.95;100781.59;5032719;28;20238;-78
2022/11/02 11:07:11;;;;;;;2.20;0.90;;;;;;;13.13;63.53;100770.72;5014778;28;20649;-77
2022/11/02 11:09:53;;;;;;;0.97;0.80;;;;;;;13.13;64.23;100786.38;5032976;28;20186;-76
2022/11/02 11:12:30;;;;;;;1.77;0.57;;;;;;;13.17;64.75;100792.84;5029675;28;20283;-78
2022/11/02 11:14:58;;;;;;;1.07;0.80;;;;;;;13.18;63.94;100798.06;5032228;28;20237;-78
2022/11/02 11:17:31;;;;;;;0.20;0.20;;;;;;;13.19;63.41;100801.59;5031780;28;20642;-78
2022/11/02 11:19:57;;;;;;;3.60;0.60;;;;;;;13.24;63.64;100809.66;5032649;28;20180;-78
2022/11/02 11:22:38;;;;;;;1.03;0.90;;;;;;;13.27;63.20;100812.56;5032604;28;20187;-78
2022/11/02 11:25:24;;;;;;;5.73;1.20;;;;;;;13.25;61.93;100811.28;5032475;28;20271;-78
2022/11/02 11:27:57;;;;;;;9.00;1.47;;;;;;;13.29;61.51;100806.75;5032536;28;20253;-78
2022/11/02 11:30:34;;;;;;;4.00;1.50;;;;;;;13.34;61.43;100806.63;5032574;28;20183;-79
2022/11/02 11:33:02;;;;;;;6.17;1.00;;;;;;;13.38;61.14;100805.66;5032239;28;20375;-78
2022/11/02 11:35:34;;;;;;;1.23;0.80;;;;;;;13.41;61.30;100815.19;5032315;28;20631;-79
2022/11/02 11:38:05;;;;;;;10.57;0.70;;;;;;;13.35;60.88;100805.50;5032376;28;20179;-76
2022/11/02 11:40:34;;;;;;;3.57;1.33;;;;;;;13.27;61.03;100803.53;5032274;28;20532;-80
2022/11/02 11:43:02;;;;;;;2.37;1.33;;;;;;;13.35;60.88;100814.53;5031978;28;20195;-78
2022/11/02 11:45:32;;;;;;;3.53;1.20;;;;;;;13.34;61.36;100817.59;5032208;28;20184;-79
2022/11/02 11:48:16;;;;;;;9.00;0.97;;;;;;;13.48;61.90;100810.03;5032309;28;20176;-78
2022/11/02 11:50:49;;;;;;;0.63;0.63;;;;;;;13.54;60.73;100813.41;5032517;28;20202;-77